Time;durP1;ratioP1;P1;durP2;ratioP2;P2;SDS_P1;SDS_P2;PMS_P1;PMS_P2;Temp;Humidity;BMP_temperature;BMP_pressure;BME280_temperature;BME280_humidity;BME280_pressure;Samples;Min_cycle;Max_cycle;Signal;HPM_P1;HPM_P2
2023/08/15 00:02:12;;;;;;;11.68;10.48;;;;;;;;;;10232005;28;20407;-70
2023/08/15 00:07:09;;;;;;;15.25;9.98;;;;;;;;;;10218880;28;20049;-69
2023/08/15 00:12:06;;;;;;;14.35;10.50;;;;;;;;;;10221162;28;20131;-68
2023/08/15 00:17:02;;;;;;;12.00;10.15;;;;;;;;;;10222831;28;20499;-69
2023/08/15 00:21:59;;;;;;;12.57;10.85;;;;;;;;;;10218707;28;20063;-69
2023/08/15 00:26:55;;;;;;;12.35;10.65;;;;;;;;;;10230404;28;20049;-69
2023/08/15 00:31:52;;;;;;;11.10;10.02;;;;;;;;;;10222823;28;20515;-70
2023/08/15 00:36:48;;;;;;;12.40;11.10;;;;;;;;;;10233126;28;20045;-69
2023/08/15 00:41:44;;;;;;;10.95;9.73;;;;;;;;;;10230234;28;20041;-69
2023/08/15 00:46:41;;;;;;;13.60;11.07;;;;;;;;;;10229905;28;20041;-69
2023/08/15 00:51:38;;;;;;;11.40;10.20;;;;;;;;;;10232655;28;20469;-69
2023/08/15 00:56:35;;;;;;;11.90;10.57;;;;;;;;;;10222564;28;20095;-69
2023/08/15 01:01:31;;;;;;;14.35;10.85;;;;;;;;;;10230814;28;20053;-69
2023/08/15 01:06:28;;;;;;;12.05;10.90;;;;;;;;;;10228754;28;20135;-68
2023/08/15 01:11:27;;;;;;;14.98;11.27;;;;;;;;;;10223444;28;20096;-69
2023/08/15 01:16:28;;;;;;;12.20;11.00;;;;;;;;;;10219980;28;20128;-70
2023/08/15 01:21:27;;;;;;;14.45;10.77;;;;;;;;;;10224532;28;20053;-69
2023/08/15 01:26:24;;;;;;;15.88;11.05;;;;;;;;;;10227401;28;21750;-70
2023/08/15 01:31:36;;;;;;;12.88;11.38;;;;;;;;;;10211619;28;20049;-68
2023/08/15 01:36:36;;;;;;;12.13;11.00;;;;;;;;;;10222667;28;20132;-68
2023/08/15 01:41:33;;;;;;;16.33;12.65;;;;;;;;;;10231986;28;20114;-68
2023/08/15 01:46:29;;;;;;;12.02;10.82;;;;;;;;;;10230530;28;20494;-69
2023/08/15 01:51:26;;;;;;;15.55;11.27;;;;;;;;;;10233999;28;20049;-69
2023/08/15 01:56:22;;;;;;;12.90;10.82;;;;;;;;;;10228021;28;20137;-68
2023/08/15 02:01:18;;;;;;;11.85;10.75;;;;;;;;;;10224647;28;20601;-69
2023/08/15 02:06:15;;;;;;;12.88;11.20;;;;;;;;;;10236119;28;20056;-70
2023/08/15 02:11:11;;;;;;;12.63;11.15;;;;;;;;;;10224078;28;20123;-69
2023/08/15 02:16:07;;;;;;;11.73;10.45;;;;;;;;;;10234689;28;20065;-69
2023/08/15 02:21:04;;;;;;;14.13;11.65;;;;;;;;;;10224947;28;20160;-69
2023/08/15 02:26:00;;;;;;;14.27;12.13;;;;;;;;;;10224303;28;20408;-69
2023/08/15 02:30:57;;;;;;;14.60;11.68;;;;;;;;;;10227065;28;20462;-68
2023/08/15 02:35:53;;;;;;;12.32;11.20;;;;;;;;;;10233870;28;20120;-69
2023/08/15 02:40:49;;;;;;;13.93;12.07;;;;;;;;;;10227568;28;20419;-68
2023/08/15 02:45:46;;;;;;;13.25;11.70;;;;;;;;;;10242497;28;20136;-68
2023/08/15 02:50:42;;;;;;;13.30;12.10;;;;;;;;;;10228092;28;20140;-69
2023/08/15 02:55:38;;;;;;;13.32;12.00;;;;;;;;;;10216445;28;20733;-69
2023/08/15 03:00:35;;;;;;;13.60;12.25;;;;;;;;;;10235231;28;20044;-69
2023/08/15 03:05:32;;;;;;;14.75;13.32;;;;;;;;;;10225761;28;20495;-69
2023/08/15 03:10:28;;;;;;;14.73;13.25;;;;;;;;;;10274042;23;20049;-69
2023/08/15 03:15:24;;;;;;;13.32;12.23;;;;;;;;;;10256561;28;20048;-69
2023/08/15 03:20:21;;;;;;;24.65;13.02;;;;;;;;;;10272424;28;20453;-69
2023/08/15 03:25:17;;;;;;;15.02;13.63;;;;;;;;;;10266578;28;20434;-70
2023/08/15 03:30:14;;;;;;;15.25;13.43;;;;;;;;;;10271597;28;20056;-70
2023/08/15 03:35:10;;;;;;;14.73;13.23;;;;;;;;;;10251836;28;20080;-74
2023/08/15 03:40:07;;;;;;;16.00;14.15;;;;;;;;;;10261739;28;20049;-74
2023/08/15 03:45:04;;;;;;;13.90;12.80;;;;;;;;;;10256716;28;20753;-73
2023/08/15 03:50:01;;;;;;;16.35;14.57;;;;;;;;;;10269080;28;20410;-73
2023/08/15 03:54:58;;;;;;;18.13;13.57;;;;;;;;;;10253452;28;20064;-74
2023/08/15 03:59:54;;;;;;;15.73;14.10;;;;;;;;;;10228053;28;20065;-74
2023/08/15 04:04:50;;;;;;;16.33;14.65;;;;;;;;;;10252887;28;20583;-74
2023/08/15 04:09:47;;;;;;;16.70;15.00;;;;;;;;;;10241054;28;20458;-74
2023/08/15 04:14:43;;;;;;;17.38;15.85;;;;;;;;;;10246936;28;20527;-73
2023/08/15 04:25:34;;;;;;;15.93;14.63;;;;;;;;;;10225293;28;20072;-73
2023/08/15 04:48:02;;;;;;;16.88;15.48;;;;;;;;;;10332065;23;20054;-73
2023/08/15 05:12:14;;;;;;;17.55;16.00;;;;;;;;;;10059404;28;20043;-74
2023/08/15 05:17:57;;;;;;;18.35;16.40;;;;;;;;;;10147411;23;20058;-75
2023/08/15 05:23:20;;;;;;;19.05;17.08;;;;;;;;;;10145348;28;20710;-79
2023/08/15 05:29:15;;;;;;;;;;;;;;;;;;;;;
2023/08/15 05:40:58;;;;;;;17.83;16.00;;;;;;;;;;9952180;29;20045;-74
2023/08/15 06:55:53;;;;;;;;;;;;;;;;;;;;;
2023/08/15 07:01:49;;;;;;;15.88;14.23;;;;;;;;;;9636319;30;20055;-75
2023/08/15 07:18:47;;;;;;;15.77;14.20;;;;;;;;;;10250586;23;20519;-75
2023/08/15 07:24:42;;;;;;;;;;;;;;;;;;;;;
2023/08/15 07:48:39;;;;;;;14.98;13.68;;;;;;;;;;10903147;22;20734;-75
2023/08/15 07:54:59;;;;;;;;;;;;;;;;;;;;;
2023/08/15 08:23:25;;;;;;;15.00;13.57;;;;;;;;;;10158594;26;20057;-74
2023/08/15 08:34:26;;;;;;;17.25;15.57;;;;;;;;;;10302528;22;20041;-75
2023/08/15 08:40:11;;;;;;;18.45;16.95;;;;;;;;;;9993008;29;20055;-74
2023/08/15 08:46:08;;;;;;;17.48;16.10;;;;;;;;;;9860826;29;20463;-74
2023/08/15 08:57:58;;;;;;;18.10;16.50;;;;;;;;;;10230270;23;20069;-74
2023/08/15 09:03:18;;;;;;;;;;;;;;;;;;10029683;29;20056;-74
2023/08/15 09:20:40;;;;;;;;;;;;;;;;;;;;;
2023/08/15 10:01:38;;;;;;;12.65;10.32;;;;;;;;;;4526341;26;20042;-74
2023/08/15 10:06:35;;;;;;;11.65;10.07;;;;;;;;;;10202574;28;20397;-74
2023/08/15 10:11:35;;;;;;;10.43;9.27;;;;;;;;;;10176538;28;20088;-74
2023/08/15 11:09:30;;;;;;;;;;;;;;;;;;;;;
2023/08/15 12:01:42;;;;;;;10.80;9.80;;;;;;;;;;10371165;23;20124;-75
2023/08/15 12:06:39;;;;;;;11.38;10.18;;;;;;;;;;10219306;28;20037;-75
2023/08/15 12:11:36;;;;;;;11.38;10.18;;;;;;;;;;10206927;28;20049;-75
2023/08/15 12:28:19;;;;;;;;;;;;;;;;;;;;;
2023/08/15 12:52:52;;;;;;;13.23;11.15;;;;;;;;;;9938525;29;20081;-75
2023/08/15 13:05:06;;;;;;;12.43;10.65;;;;;;;;;;10205173;28;20050;-74
2023/08/15 13:11:04;;;;;;;;;;;;;;;;;;;;;
2023/08/15 14:25:05;;;;;;;9.77;8.77;;;;;;;;;;9867423;28;20037;-73
2023/08/15 14:35:07;;;;;;;9.98;8.98;;;;;;;;;;9148749;26;20049;-72
2023/08/15 15:08:28;;;;;;;7.97;7.20;;;;;;;;;;10215267;28;20045;-73
2023/08/15 15:13:25;;;;;;;8.45;7.65;;;;;;;;;;10221468;28;20112;-73
2023/08/15 15:18:22;;;;;;;7.50;6.85;;;;;;;;;;10224025;28;20069;-74
2023/08/15 15:23:19;;;;;;;7.88;6.82;;;;;;;;;;10221323;28;20041;-73
2023/08/15 15:28:16;;;;;;;7.30;6.63;;;;;;;;;;10393891;22;20045;-73
2023/08/15 15:33:12;;;;;;;7.72;6.75;;;;;;;;;;10228435;28;20133;-73
2023/08/15 15:44:37;;;;;;;9.27;7.18;;;;;;;;;;10143091;28;20045;-73
2023/08/15 15:50:31;;;;;;;8.75;7.80;;;;;;;;;;10161544;28;20058;-73
2023/08/15 15:55:28;;;;;;;7.78;6.97;;;;;;;;;;10215229;28;20049;-73
2023/08/15 16:00:24;;;;;;;9.73;8.00;;;;;;;;;;10193602;28;20069;-73
2023/08/15 16:05:21;;;;;;;9.10;7.70;;;;;;;;;;10224317;28;20053;-73
2023/08/15 16:10:18;;;;;;;10.82;8.82;;;;;;;;;;10216013;28;20527;-73
2023/08/15 16:15:14;;;;;;;9.30;7.82;;;;;;;;;;10212474;28;20398;-73
2023/08/15 16:20:11;;;;;;;7.60;6.35;;;;;;;;;;10212803;28;20466;-72
2023/08/15 16:25:07;;;;;;;9.30;7.47;;;;;;;;;;10207717;28;20070;-73
2023/08/15 16:30:04;;;;;;;8.38;7.55;;;;;;;;;;10204199;28;20053;-73
2023/08/15 16:35:13;;;;;;;8.90;7.35;;;;;;;;;;10214444;28;20651;-74
2023/08/15 16:40:49;;;;;;;8.95;7.85;;;;;;;;;;10304859;23;20045;-73
2023/08/15 16:53:24;;;;;;;9.55;7.50;;;;;;;;;;10094967;28;20459;-73
2023/08/15 17:20:30;;;;;;;7.50;6.43;;;;;;;;;;10249431;28;20650;-73
2023/08/15 17:25:27;;;;;;;8.57;7.00;;;;;;;;;;10268751;28;20056;-73
2023/08/15 17:41:26;;;;;;;9.85;6.82;;;;;;;;;;8512468;22;20054;-73
2023/08/15 17:57:50;;;;;;;9.68;7.15;;;;;;;;;;10161819;28;20050;-73
2023/08/15 18:02:46;;;;;;;11.25;7.63;;;;;;;;;;10125934;28;20090;-73
2023/08/15 18:45:10;;;;;;;9.45;6.57;;;;;;;;;;10193910;28;20077;-72
2023/08/15 18:50:07;;;;;;;12.68;8.75;;;;;;;;;;10500623;23;20042;-72
2023/08/15 18:55:03;;;;;;;8.57;7.32;;;;;;;;;;10185154;28;20049;-72
2023/08/15 19:00:02;;;;;;;7.82;6.45;;;;;;;;;;10161598;28;20062;-74
2023/08/15 19:04:58;;;;;;;8.52;6.60;;;;;;;;;;10138475;28;20133;-74
2023/08/15 19:09:54;;;;;;;7.40;6.38;;;;;;;;;;10131480;28;20066;-74
2023/08/15 19:14:51;;;;;;;6.32;5.82;;;;;;;;;;10135216;28;20098;-75
2023/08/15 19:52:01;;;;;;;8.02;6.13;;;;;;;;;;10429610;22;20053;-69
2023/08/15 19:56:57;;;;;;;8.65;7.00;;;;;;;;;;10218324;28;20048;-69
2023/08/15 20:01:54;;;;;;;7.97;5.88;;;;;;;;;;10254995;28;20733;-70
2023/08/15 20:06:51;;;;;;;9.38;6.45;;;;;;;;;;10245811;28;20041;-70
2023/08/15 20:11:47;;;;;;;9.45;6.75;;;;;;;;;;10256881;28;20049;-70
2023/08/15 20:16:44;;;;;;;11.98;6.35;;;;;;;;;;10265735;28;20756;-70
2023/08/15 20:21:41;;;;;;;9.02;6.05;;;;;;;;;;10237338;28;20502;-70
2023/08/15 20:26:37;;;;;;;7.45;5.80;;;;;;;;;;10258229;28;20671;-70
2023/08/15 20:31:34;;;;;;;7.10;5.15;;;;;;;;;;10245902;28;20052;-70
2023/08/15 20:36:30;;;;;;;6.10;5.50;;;;;;;;;;10259998;28;20143;-70
2023/08/15 20:41:27;;;;;;;7.88;6.35;;;;;;;;;;10411570;23;20037;-70
2023/08/15 20:46:33;;;;;;;9.80;6.32;;;;;;;;;;10254349;28;20044;-70
2023/08/15 20:51:30;;;;;;;8.70;5.43;;;;;;;;;;10212954;28;20069;-70
2023/08/15 20:56:26;;;;;;;7.07;5.78;;;;;;;;;;10204617;28;20072;-69
2023/08/15 21:01:23;;;;;;;8.48;5.82;;;;;;;;;;10219403;28;20136;-69
2023/08/15 21:06:19;;;;;;;6.85;6.15;;;;;;;;;;10198309;28;20049;-69
2023/08/15 21:11:15;;;;;;;9.02;6.25;;;;;;;;;;10213875;28;20061;-70
2023/08/15 21:16:12;;;;;;;9.05;5.60;;;;;;;;;;10208084;28;20046;-69
2023/08/15 21:21:08;;;;;;;8.27;6.00;;;;;;;;;;10216676;28;20057;-70
2023/08/15 21:26:04;;;;;;;6.82;5.38;;;;;;;;;;10207954;28;20601;-70
2023/08/15 21:31:01;;;;;;;9.50;5.00;;;;;;;;;;10201459;28;20049;-70
2023/08/15 21:35:58;;;;;;;9.48;5.72;;;;;;;;;;10207410;28;20058;-70
2023/08/15 21:40:54;;;;;;;9.18;6.05;;;;;;;;;;10267536;23;20068;-70
2023/08/15 21:45:50;;;;;;;8.07;5.60;;;;;;;;;;10165103;28;20050;-70
2023/08/15 21:50:47;;;;;;;9.30;5.53;;;;;;;;;;10261735;23;20055;-70
2023/08/15 21:55:43;;;;;;;9.25;5.63;;;;;;;;;;10262065;28;20037;-70
2023/08/15 22:00:40;;;;;;;8.45;5.03;;;;;;;;;;10293666;23;20462;-70
2023/08/15 22:05:37;;;;;;;10.43;5.50;;;;;;;;;;10228180;28;20045;-70
2023/08/15 22:10:33;;;;;;;7.25;5.35;;;;;;;;;;10221055;28;20058;-70
2023/08/15 22:15:29;;;;;;;11.05;5.97;;;;;;;;;;10222639;28;20462;-69
2023/08/15 22:20:26;;;;;;;8.27;6.05;;;;;;;;;;10225080;28;20982;-70
2023/08/15 22:25:22;;;;;;;7.85;5.70;;;;;;;;;;10227960;28;20716;-70
2023/08/15 22:30:18;;;;;;;8.43;6.00;;;;;;;;;;10230704;28;20100;-71
2023/08/15 22:35:15;;;;;;;6.65;5.43;;;;;;;;;;10219553;28;20084;-69
2023/08/15 22:40:11;;;;;;;6.47;5.82;;;;;;;;;;10225673;28;20073;-71
2023/08/15 22:45:07;;;;;;;8.85;5.63;;;;;;;;;;10227466;28;20072;-71
2023/08/15 22:50:04;;;;;;;7.72;5.30;;;;;;;;;;10230230;28;20511;-71
2023/08/15 22:55:00;;;;;;;6.38;5.30;;;;;;;;;;10215425;28;20053;-70
2023/08/15 22:59:57;;;;;;;9.43;5.32;;;;;;;;;;10223373;28;20053;-69
2023/08/15 23:04:53;;;;;;;7.68;5.45;;;;;;;;;;10224991;28;20092;-70
2023/08/15 23:09:49;;;;;;;7.72;5.20;;;;;;;;;;10347472;22;20053;-70
2023/08/15 23:14:45;;;;;;;7.80;5.20;;;;;;;;;;10218243;28;20171;-70
2023/08/15 23:19:42;;;;;;;5.93;5.20;;;;;;;;;;10238226;28;20048;-70
2023/08/15 23:24:38;;;;;;;6.85;5.65;;;;;;;;;;10253704;28;20525;-69
2023/08/15 23:29:34;;;;;;;9.63;6.13;;;;;;;;;;10264891;23;20120;-69
2023/08/15 23:34:31;;;;;;;7.18;5.88;;;;;;;;;;10247810;28;20084;-69
2023/08/15 23:39:27;;;;;;;6.47;5.22;;;;;;;;;;10277156;28;20127;-71
2023/08/15 23:44:23;;;;;;;6.60;5.82;;;;;;;;;;10306484;28;20052;-71
2023/08/15 23:49:20;;;;;;;12.48;6.57;;;;;;;;;;10303485;28;20041;-71
2023/08/15 23:54:16;;;;;;;5.60;5.10;;;;;;;;;;10309873;28;20059;-71
2023/08/15 23:59:12;;;;;;;6.35;5.53;;;;;;;;;;10301778;28;20041;-70
